createdAt,value
2023-03-08T00:00:18.660Z,15.65
2023-03-08T00:02:46.356Z,12.73
2023-03-08T00:05:14.088Z,16.10
2023-03-08T00:07:41.764Z,15.40
2023-03-08T00:10:11.113Z,14.70
2023-03-08T00:12:38.851Z,14.25
2023-03-08T00:15:07.512Z,14.23
2023-03-08T00:17:38.912Z,13.98
2023-03-08T00:20:08.030Z,13.52
2023-03-08T00:22:36.849Z,14.38
2023-03-08T00:25:04.992Z,14.00
2023-03-08T00:27:32.723Z,14.52
2023-03-08T00:30:00.333Z,13.95
2023-03-08T00:32:28.237Z,13.95
2023-03-08T00:34:57.319Z,13.82
2023-03-08T00:37:25.077Z,14.13
2023-03-08T00:39:53.796Z,14.20
2023-03-08T00:42:22.063Z,13.00
2023-03-08T00:44:50.018Z,13.70
2023-03-08T00:47:18.392Z,14.30
2023-03-08T00:49:46.094Z,14.02
2023-03-08T00:52:15.150Z,13.43
2023-03-08T00:54:43.065Z,13.63
2023-03-08T00:57:10.770Z,14.15
2023-03-08T00:59:38.629Z,14.50
2023-03-08T01:02:06.880Z,14.02
2023-03-08T01:04:34.660Z,13.90
2023-03-08T01:07:02.412Z,14.27
2023-03-08T01:09:31.416Z,14.75
2023-03-08T01:11:59.070Z,12.90
2023-03-08T01:14:26.833Z,13.40
2023-03-08T01:16:54.473Z,13.40
2023-03-08T01:19:22.687Z,13.60
2023-03-08T01:21:50.396Z,12.45
2023-03-08T01:24:18.037Z,12.98
2023-03-08T01:26:47.045Z,14.18
2023-03-08T01:29:14.779Z,14.13
2023-03-08T01:31:42.433Z,15.20
2023-03-08T01:34:10.875Z,14.18
2023-03-08T01:36:38.523Z,14.73
2023-03-08T01:39:06.166Z,13.40
2023-03-08T01:41:33.840Z,15.55
2023-03-08T01:44:02.955Z,14.88
2023-03-08T01:46:31.560Z,13.52
2023-03-08T01:49:05.327Z,14.43
2023-03-08T01:51:37.056Z,14.32
2023-03-08T01:54:08.684Z,14.35
2023-03-08T01:56:36.980Z,13.32
2023-03-08T01:59:06.051Z,15.05
2023-03-08T02:01:35.109Z,14.23
2023-03-08T02:04:02.818Z,13.35
2023-03-08T02:06:30.500Z,14.73
2023-03-08T02:09:03.427Z,13.73
2023-03-08T02:11:31.254Z,15.02
2023-03-08T02:13:58.937Z,13.65
2023-03-08T02:16:27.946Z,13.68
2023-03-08T02:18:58.012Z,14.23
2023-03-08T02:21:26.479Z,14.50
2023-03-08T02:23:55.807Z,13.75
2023-03-08T02:26:23.752Z,13.85
2023-03-08T02:28:51.393Z,14.70
2023-03-08T02:31:19.147Z,13.75
2023-03-08T02:33:46.830Z,13.15
2023-03-08T02:36:14.491Z,13.60
2023-03-08T02:38:42.164Z,13.43
2023-03-08T02:41:11.167Z,13.50
2023-03-08T02:43:38.820Z,14.88
2023-03-08T02:46:06.876Z,13.82
2023-03-08T02:48:34.623Z,14.98
2023-03-08T02:51:02.268Z,14.07
2023-03-08T02:53:30.441Z,15.05
2023-03-08T02:55:58.196Z,14.48
2023-03-08T02:58:27.375Z,14.55
2023-03-08T03:00:54.984Z,14.68
2023-03-08T03:03:22.688Z,13.57
2023-03-08T03:05:50.340Z,14.68
2023-03-08T03:08:18.107Z,14.65
2023-03-08T03:10:45.750Z,13.75
2023-03-08T03:13:13.477Z,15.30
2023-03-08T03:15:42.580Z,15.70
2023-03-08T03:18:10.244Z,15.82
2023-03-08T03:20:37.878Z,14.95
2023-03-08T03:23:06.437Z,14.43
2023-03-08T03:25:37.864Z,14.32
2023-03-08T03:28:05.829Z,15.25
2023-03-08T03:30:33.518Z,15.40
2023-03-08T03:33:02.528Z,15.43
2023-03-08T03:35:30.233Z,15.40
2023-03-08T03:37:57.927Z,16.25
2023-03-08T03:40:25.561Z,15.38
2023-03-08T03:42:53.218Z,15.43
2023-03-08T03:45:20.875Z,16.10
2023-03-08T03:47:48.503Z,14.88
2023-03-08T03:50:18.202Z,15.20
2023-03-08T03:52:45.837Z,15.25
2023-03-08T03:55:13.467Z,14.32
2023-03-08T03:57:41.347Z,15.90
2023-03-08T04:00:10.163Z,14.73
2023-03-08T04:02:37.784Z,16.45
2023-03-08T04:05:06.083Z,15.63
2023-03-08T04:07:35.329Z,16.08
2023-03-08T04:10:03.389Z,15.80
2023-03-08T04:12:31.045Z,15.93
2023-03-08T04:14:58.629Z,17.23
2023-03-08T04:17:26.369Z,14.70
2023-03-08T04:19:53.956Z,16.25
2023-03-08T04:22:21.574Z,16.95
2023-03-08T04:24:50.523Z,16.85
2023-03-08T04:27:18.137Z,17.15
2023-03-08T04:29:45.712Z,17.20
2023-03-08T04:32:13.373Z,16.92
2023-03-08T04:34:42.906Z,16.92
2023-03-08T04:37:12.295Z,18.42
2023-03-08T04:39:39.986Z,17.38
2023-03-08T04:42:09.154Z,16.88
2023-03-08T04:44:36.833Z,17.42
2023-03-08T04:47:04.533Z,17.67
2023-03-08T04:49:32.152Z,17.65
2023-03-08T04:51:59.801Z,17.52
2023-03-08T04:54:27.765Z,18.50
2023-03-08T04:56:55.445Z,18.23
2023-03-08T04:59:24.509Z,16.95
2023-03-08T05:01:52.166Z,17.40
2023-03-08T05:04:19.862Z,20.10
2023-03-08T05:06:47.534Z,17.73
2023-03-08T05:09:15.276Z,19.13
2023-03-08T05:11:42.929Z,17.95
2023-03-08T05:14:10.783Z,18.92
2023-03-08T05:16:39.816Z,18.23
2023-03-08T05:19:07.507Z,18.88
2023-03-08T05:21:35.218Z,18.25
2023-03-08T05:24:02.850Z,18.90
2023-03-08T05:26:30.517Z,18.83
2023-03-08T05:28:58.497Z,17.10
2023-03-08T05:31:26.229Z,17.77
2023-03-08T05:33:55.215Z,18.88
2023-03-08T05:36:22.891Z,18.77
2023-03-08T05:38:54.174Z,16.33
2023-03-08T05:41:22.348Z,17.73
2023-03-08T05:43:50.042Z,18.75
2023-03-08T05:46:19.515Z,19.65
2023-03-08T05:48:47.327Z,18.48
2023-03-08T05:51:17.628Z,20.20
2023-03-08T05:53:45.924Z,19.13
2023-03-08T05:56:15.262Z,18.27
2023-03-08T05:58:47.749Z,19.75
2023-03-08T06:01:17.432Z,18.65
2023-03-08T06:03:45.206Z,18.08
2023-03-08T06:06:13.065Z,20.13
2023-03-08T06:08:42.537Z,17.85
2023-03-08T06:11:10.571Z,17.42
2023-03-08T06:13:38.446Z,19.38
2023-03-08T06:16:06.841Z,18.75
2023-03-08T06:18:34.708Z,18.52
2023-03-08T06:21:03.940Z,19.70
2023-03-08T06:23:33.129Z,19.08
2023-03-08T06:26:02.376Z,18.70
2023-03-08T06:28:31.041Z,20.02
2023-03-08T06:30:59.136Z,19.02
2023-03-08T06:33:28.533Z,19.55
2023-03-08T06:35:58.069Z,18.50
2023-03-08T06:38:27.570Z,18.55
2023-03-08T06:40:56.810Z,15.23
2023-03-08T06:43:26.289Z,18.83
2023-03-08T06:45:53.963Z,19.98
2023-03-08T06:48:21.986Z,19.88
2023-03-08T06:50:49.694Z,19.02
2023-03-08T06:53:17.358Z,18.42
2023-03-08T06:55:44.982Z,18.67
2023-03-08T06:58:12.597Z,18.90
2023-03-08T07:00:41.542Z,19.75
2023-03-08T07:03:09.142Z,19.58
2023-03-08T07:05:36.732Z,20.60
2023-03-08T07:08:04.632Z,20.02
2023-03-08T07:10:32.501Z,17.85
2023-03-08T07:13:00.111Z,18.83
2023-03-08T07:15:27.785Z,20.20
2023-03-08T07:17:57.851Z,18.52
2023-03-08T07:20:27.539Z,20.30
2023-03-08T07:22:55.202Z,19.77
2023-03-08T07:25:23.172Z,19.42
2023-03-08T07:27:50.787Z,25.15
2023-03-08T07:30:18.567Z,19.17
2023-03-08T07:32:46.489Z,18.95
2023-03-08T07:35:16.580Z,19.55
2023-03-08T07:37:45.914Z,19.15
2023-03-08T07:40:15.692Z,19.38
2023-03-08T07:42:43.649Z,19.80
2023-03-08T07:45:12.319Z,21.30
2023-03-08T07:47:40.502Z,19.63
2023-03-08T07:50:09.721Z,19.65
2023-03-08T07:52:38.851Z,19.55
2023-03-08T07:55:07.752Z,21.10
2023-03-08T07:57:35.475Z,20.73
2023-03-08T08:00:07.486Z,20.63
2023-03-08T08:02:35.408Z,20.33
2023-03-08T08:05:04.012Z,18.70
2023-03-08T08:07:31.939Z,18.05
2023-03-08T08:10:01.009Z,18.65
2023-03-08T08:12:28.707Z,19.23
2023-03-08T08:14:56.335Z,18.00
2023-03-08T08:17:24.005Z,18.20
2023-03-08T08:19:51.863Z,18.35
2023-03-08T08:22:19.614Z,18.23
2023-03-08T08:24:47.355Z,17.85
2023-03-08T08:27:16.393Z,18.52
2023-03-08T08:29:46.113Z,19.48
2023-03-08T08:32:13.878Z,18.75
2023-03-08T08:34:41.526Z,17.90
2023-03-08T08:37:09.562Z,18.58
2023-03-08T08:39:37.309Z,17.95
2023-03-08T08:42:05.178Z,18.98
2023-03-08T08:44:34.178Z,17.67
2023-03-08T08:47:01.839Z,22.27
2023-03-08T08:49:29.463Z,19.52
2023-03-08T08:51:57.174Z,18.55
2023-03-08T08:54:24.855Z,18.92
2023-03-08T08:56:52.540Z,17.58
2023-03-08T08:59:20.249Z,18.48
2023-03-08T09:01:49.250Z,17.83
2023-03-08T09:04:17.825Z,18.85
2023-03-08T09:06:45.505Z,18.58
2023-03-08T09:09:13.178Z,19.33
2023-03-08T09:11:53.738Z,19.15
2023-03-08T09:14:22.359Z,19.98
2023-03-08T09:16:52.566Z,21.65
2023-03-08T09:19:20.480Z,18.52
2023-03-08T09:21:48.246Z,22.13
2023-03-08T09:24:16.690Z,20.67
2023-03-08T09:26:44.299Z,20.13
2023-03-08T09:29:12.560Z,19.30
2023-03-08T09:31:42.317Z,20.70
2023-03-08T09:34:13.498Z,20.17
2023-03-08T09:36:41.346Z,16.70
2023-03-08T09:39:09.984Z,19.08
2023-03-08T09:41:49.882Z,18.95
2023-03-08T09:44:26.955Z,19.27
2023-03-08T09:46:57.514Z,18.35
2023-03-08T09:49:30.717Z,18.27
2023-03-08T09:52:03.717Z,19.83
2023-03-08T09:54:33.065Z,18.58
2023-03-08T09:57:02.898Z,18.88
2023-03-08T09:59:34.708Z,19.30
2023-03-08T10:02:06.008Z,19.63
2023-03-08T10:04:42.917Z,20.53
2023-03-08T10:07:20.044Z,20.17
2023-03-08T10:09:50.604Z,19.58
2023-03-08T10:12:22.758Z,20.23
2023-03-08T10:17:22.248Z,18.85
2023-03-08T10:19:55.216Z,19.98
2023-03-08T10:22:27.444Z,20.23
2023-03-08T10:27:25.383Z,19.95
2023-03-08T10:29:54.724Z,19.20
2023-03-08T10:32:22.875Z,20.75
2023-03-08T10:34:52.202Z,18.35
2023-03-08T10:37:21.587Z,18.58
2023-03-08T10:39:52.929Z,21.98
2023-03-08T10:42:22.750Z,19.25
2023-03-08T10:44:56.111Z,19.10
2023-03-08T10:47:25.488Z,19.85
2023-03-08T10:50:07.315Z,21.45
2023-03-08T10:52:35.393Z,17.67
2023-03-08T10:55:04.919Z,18.38
2023-03-08T10:57:32.863Z,20.58
2023-03-08T11:00:07.583Z,20.08
2023-03-08T11:02:35.300Z,19.40
2023-03-08T11:05:03.033Z,18.90
2023-03-08T11:07:33.935Z,19.33
2023-03-08T11:10:17.933Z,19.52
2023-03-08T11:12:46.380Z,22.88
2023-03-08T11:15:15.297Z,21.75
2023-03-08T11:17:49.251Z,20.48
2023-03-08T11:20:20.288Z,19.40
2023-03-08T11:23:00.306Z,20.83
2023-03-08T11:25:36.429Z,17.08
2023-03-08T11:28:34.624Z,18.27
2023-03-08T11:31:14.954Z,21.13
2023-03-08T11:33:53.389Z,19.52
2023-03-08T11:36:24.738Z,17.98
2023-03-08T11:38:59.547Z,13.67
2023-03-08T11:41:34.500Z,17.92
2023-03-08T11:44:14.266Z,18.55
2023-03-08T11:46:51.911Z,17.95
2023-03-08T11:49:35.658Z,18.88
2023-03-08T11:52:11.390Z,18.80
2023-03-08T11:54:49.096Z,17.45
2023-03-08T11:57:17.800Z,17.55
2023-03-08T11:59:48.719Z,16.65
2023-03-08T12:02:20.043Z,16.27
2023-03-08T12:04:56.677Z,15.57
2023-03-08T12:07:28.015Z,16.17
2023-03-08T12:10:01.304Z,15.75
2023-03-08T12:12:32.514Z,15.18
2023-03-08T12:15:06.748Z,15.55
2023-03-08T12:17:39.561Z,16.25
2023-03-08T12:20:10.869Z,15.38
2023-03-08T12:22:46.264Z,14.68
2023-03-08T12:25:24.102Z,15.63
2023-03-08T12:27:56.279Z,14.77
2023-03-08T12:32:56.430Z,10.25
2023-03-08T12:35:32.496Z,8.70
2023-03-08T12:38:02.504Z,7.97
2023-03-08T12:40:40.857Z,9.30
2023-03-08T12:43:11.498Z,8.25
2023-03-08T12:45:41.636Z,9.23
2023-03-08T12:48:17.330Z,8.77
2023-03-08T12:50:47.329Z,9.23
2023-03-08T12:53:24.868Z,8.60
2023-03-08T12:56:06.058Z,9.05
2023-03-08T12:58:35.097Z,8.02
2023-03-08T13:01:05.672Z,8.10
2023-03-08T13:03:38.791Z,8.40
2023-03-08T13:06:17.553Z,9.48
2023-03-08T13:08:51.510Z,8.52
2023-03-08T13:11:21.120Z,10.02
2023-03-08T13:13:52.813Z,8.85
2023-03-08T13:16:32.250Z,9.35
2023-03-08T13:19:10.333Z,9.15
2023-03-08T13:21:41.719Z,9.57
2023-03-08T13:24:14.565Z,8.90
2023-03-08T13:26:55.420Z,8.93
2023-03-08T13:29:23.173Z,9.10
2023-03-08T13:31:51.391Z,9.13
2023-03-08T13:34:27.110Z,9.57
2023-03-08T13:36:55.856Z,8.55
2023-03-08T13:39:25.147Z,9.43
2023-03-08T13:41:54.582Z,8.70
2023-03-08T13:44:24.148Z,9.23
2023-03-08T13:46:53.357Z,9.15
2023-03-08T13:49:23.503Z,9.43
2023-03-08T13:51:52.457Z,9.20
2023-03-08T13:54:29.295Z,9.25
2023-03-08T13:56:59.952Z,8.90
2023-03-08T13:59:28.098Z,8.80
2023-03-08T14:01:56.796Z,9.52
2023-03-08T14:04:26.457Z,8.85
2023-03-08T14:06:55.495Z,9.35
2023-03-08T14:09:23.517Z,9.00
2023-03-08T14:11:58.912Z,9.00
2023-03-08T14:14:30.293Z,9.05
2023-03-08T14:16:58.165Z,8.98
2023-03-08T14:19:27.072Z,9.65
2023-03-08T14:21:57.185Z,8.52
2023-03-08T14:24:27.002Z,9.73
2023-03-08T14:26:56.687Z,8.88
2023-03-08T14:29:26.841Z,9.43
2023-03-08T14:32:00.802Z,9.63
2023-03-08T14:34:33.729Z,9.05
2023-03-08T14:37:03.668Z,9.48
2023-03-08T14:39:32.884Z,8.88
2023-03-08T14:42:10.259Z,9.10
2023-03-08T14:44:39.454Z,8.95
2023-03-08T14:47:11.648Z,9.63
2023-03-08T14:52:09.395Z,9.00
2023-03-08T14:54:38.495Z,9.50
2023-03-08T14:57:16.746Z,9.70
2023-03-08T14:59:46.331Z,9.90
2023-03-08T15:02:15.675Z,9.57
2023-03-08T15:04:43.996Z,9.52
2023-03-08T15:07:18.000Z,10.30
2023-03-08T15:09:45.765Z,9.45
2023-03-08T15:12:13.798Z,9.80
2023-03-08T15:14:41.416Z,10.00
2023-03-08T15:17:10.466Z,9.15
2023-03-08T15:19:38.129Z,10.02
2023-03-08T15:22:06.840Z,9.82
2023-03-08T15:24:34.918Z,10.90
2023-03-08T15:27:02.510Z,9.48
2023-03-08T15:29:32.657Z,9.85
2023-03-08T15:32:00.772Z,10.05
2023-03-08T15:34:29.802Z,9.57
2023-03-08T15:36:57.487Z,9.52
2023-03-08T15:39:25.219Z,9.38
2023-03-08T15:41:53.027Z,9.60
2023-03-08T15:44:20.733Z,10.07
2023-03-08T15:46:49.884Z,9.73
2023-03-08T15:49:18.588Z,10.18
2023-03-08T15:51:47.592Z,9.93
2023-03-08T15:54:15.292Z,9.73
2023-03-08T15:56:42.962Z,9.25
2023-03-08T15:59:10.608Z,9.63
2023-03-08T16:01:38.277Z,9.57
2023-03-08T16:04:05.949Z,10.30
2023-03-08T16:06:33.549Z,9.40
2023-03-08T16:09:02.566Z,9.80
2023-03-08T16:11:31.377Z,10.00
2023-03-08T16:14:00.045Z,10.10
2023-03-08T16:16:42.670Z,9.68
2023-03-08T16:19:12.852Z,9.68
2023-03-08T16:21:40.482Z,10.25
2023-03-08T16:24:09.610Z,9.93
2023-03-08T16:26:37.299Z,9.77
2023-03-08T16:29:05.039Z,9.70
2023-03-08T16:31:33.578Z,9.63
2023-03-08T16:34:03.330Z,9.70
2023-03-08T16:36:31.020Z,9.80
2023-03-08T16:38:58.710Z,10.70
2023-03-08T16:41:30.047Z,10.35
2023-03-08T16:43:58.048Z,11.15
2023-03-08T16:46:25.813Z,10.57
2023-03-08T16:48:55.022Z,9.75
2023-03-08T16:51:24.655Z,10.23
2023-03-08T16:53:52.476Z,11.18
2023-03-08T16:56:20.734Z,9.57
2023-03-08T16:58:49.765Z,9.73
2023-03-08T17:01:19.277Z,9.85
2023-03-08T17:03:47.097Z,9.82
2023-03-08T17:06:17.134Z,9.82
2023-03-08T17:08:44.923Z,9.52
2023-03-08T17:11:16.083Z,9.75
2023-03-08T17:13:44.012Z,9.32
2023-03-08T17:16:16.158Z,9.40
2023-03-08T17:21:11.338Z,9.38
2023-03-08T17:23:39.021Z,10.00
2023-03-08T17:26:07.985Z,9.70
2023-03-08T17:28:35.756Z,9.82
2023-03-08T17:31:08.580Z,9.73
2023-03-08T17:33:37.822Z,9.68
2023-03-08T17:36:13.151Z,9.65
2023-03-08T17:38:42.348Z,10.65
2023-03-08T17:41:12.399Z,10.40
2023-03-08T17:43:41.265Z,10.90
2023-03-08T17:46:13.305Z,9.82
2023-03-08T17:48:42.578Z,8.80
2023-03-08T17:51:12.031Z,9.20
2023-03-08T17:53:40.370Z,9.43
2023-03-08T17:56:09.454Z,9.05
2023-03-08T17:58:37.352Z,9.18
2023-03-08T18:01:09.400Z,8.95
2023-03-08T18:03:37.227Z,10.05
2023-03-08T18:06:07.147Z,9.43
2023-03-08T18:08:35.892Z,9.80
2023-03-08T18:11:03.848Z,9.88
2023-03-08T18:13:31.513Z,9.65
2023-03-08T18:15:59.210Z,9.65
2023-03-08T18:18:27.705Z,8.82
2023-03-08T18:20:58.967Z,9.32
2023-03-08T18:23:33.078Z,8.63
2023-03-08T18:26:01.172Z,9.00
2023-03-08T18:28:28.842Z,9.68
2023-03-08T18:30:56.537Z,8.43
2023-03-08T18:33:24.971Z,8.15
2023-03-08T18:35:59.172Z,9.00
2023-03-08T18:38:27.064Z,8.40
2023-03-08T18:40:56.062Z,8.20
2023-03-08T18:43:25.236Z,8.38
2023-03-08T18:45:53.778Z,8.13
2023-03-08T18:48:22.178Z,8.48
2023-03-08T18:50:50.270Z,8.70
2023-03-08T18:53:18.095Z,8.40
2023-03-08T18:55:54.334Z,8.30
2023-03-08T18:58:24.499Z,8.75
2023-03-08T19:00:52.543Z,8.10
2023-03-08T19:03:20.377Z,8.80
2023-03-08T19:05:47.965Z,8.48
2023-03-08T19:08:15.784Z,8.25
2023-03-08T19:10:43.417Z,8.60
2023-03-08T19:13:11.232Z,8.30
2023-03-08T19:15:40.592Z,8.68
2023-03-08T19:18:08.461Z,8.10
2023-03-08T19:20:37.094Z,9.48
2023-03-08T19:23:04.857Z,7.72
2023-03-08T19:25:33.107Z,8.85
2023-03-08T19:28:00.785Z,8.10
2023-03-08T19:30:29.227Z,9.32
2023-03-08T19:32:58.244Z,8.60
2023-03-08T19:35:26.003Z,10.13
2023-03-08T19:37:53.643Z,9.10
2023-03-08T19:40:21.447Z,9.90
2023-03-08T19:42:52.449Z,11.35
2023-03-08T19:45:20.089Z,10.00
2023-03-08T19:47:47.763Z,12.60
2023-03-08T19:50:17.323Z,10.98
2023-03-08T19:52:44.992Z,9.75
2023-03-08T19:55:12.779Z,9.00
2023-03-08T19:57:41.988Z,8.43
2023-03-08T20:00:10.738Z,8.40
2023-03-08T20:02:40.579Z,8.38
2023-03-08T20:05:08.900Z,8.05
2023-03-08T20:07:38.002Z,7.80
2023-03-08T20:10:15.678Z,8.27
2023-03-08T20:12:43.626Z,8.20
2023-03-08T20:15:12.046Z,8.35
2023-03-08T20:17:39.803Z,8.07
2023-03-08T20:20:08.978Z,7.78
2023-03-08T20:22:37.982Z,7.90
2023-03-08T20:25:06.572Z,8.30
2023-03-08T20:27:34.204Z,8.50
2023-03-08T20:30:01.859Z,7.50
2023-03-08T20:32:29.549Z,7.97
2023-03-08T20:34:57.264Z,7.72
2023-03-08T20:37:24.963Z,7.90
2023-03-08T20:39:54.670Z,7.90
2023-03-08T20:42:22.563Z,7.80
2023-03-08T20:44:50.328Z,8.98
2023-03-08T20:47:18.212Z,8.20
2023-03-08T20:49:45.812Z,8.45
2023-03-08T20:52:13.548Z,7.32
2023-03-08T20:54:41.201Z,7.78
2023-03-08T20:57:10.375Z,7.80
2023-03-08T20:59:38.139Z,8.20
2023-03-08T21:02:05.820Z,8.05
2023-03-08T21:04:33.426Z,7.68
2023-03-08T21:07:01.029Z,7.40
2023-03-08T21:09:28.760Z,7.70
2023-03-08T21:11:56.421Z,8.25
2023-03-08T21:14:25.979Z,7.72
2023-03-08T21:16:53.557Z,7.80
2023-03-08T21:19:22.083Z,7.90
2023-03-08T21:21:55.051Z,7.70
2023-03-08T21:24:23.576Z,7.55
2023-03-08T21:26:51.973Z,7.53
2023-03-08T21:29:21.036Z,7.68
2023-03-08T21:31:51.791Z,7.93
2023-03-08T21:34:20.470Z,7.78
2023-03-08T21:36:48.352Z,7.68
2023-03-08T21:39:16.045Z,7.70
2023-03-08T21:41:45.358Z,8.13
2023-03-08T21:44:15.491Z,7.60
2023-03-08T21:46:43.898Z,7.90
2023-03-08T21:49:17.277Z,8.60
2023-03-08T21:51:45.077Z,8.20
2023-03-08T21:54:12.750Z,7.88
2023-03-08T21:56:40.431Z,8.32
2023-03-08T21:59:08.083Z,8.23
2023-03-08T22:01:35.759Z,8.45
2023-03-08T22:04:04.594Z,8.20
2023-03-08T22:06:33.616Z,8.18
2023-03-08T22:09:01.830Z,8.13
2023-03-08T22:11:29.512Z,8.30
2023-03-08T22:13:58.723Z,8.52
2023-03-08T22:16:27.748Z,8.20
2023-03-08T22:18:56.418Z,7.70
2023-03-08T22:21:24.597Z,7.95
2023-03-08T22:23:54.609Z,8.57
2023-03-08T22:26:23.344Z,8.40
2023-03-08T22:28:51.494Z,7.65
2023-03-08T22:31:20.592Z,7.70
2023-03-08T22:33:48.881Z,7.82
2023-03-08T22:36:18.374Z,8.25
2023-03-08T22:38:46.172Z,7.93
2023-03-08T22:41:19.935Z,8.13
2023-03-08T22:43:47.908Z,8.00
2023-03-08T22:46:20.163Z,8.48
2023-03-08T22:48:48.713Z,7.55
2023-03-08T22:51:17.447Z,8.57
2023-03-08T22:53:45.343Z,8.07
2023-03-08T22:56:20.217Z,8.13
2023-03-08T22:58:47.976Z,8.05
2023-03-08T23:01:16.453Z,8.57
2023-03-08T23:03:44.636Z,7.82
2023-03-08T23:06:12.281Z,7.55
2023-03-08T23:08:40.063Z,7.97
2023-03-08T23:11:07.985Z,8.02
2023-03-08T23:13:38.056Z,8.57
2023-03-08T23:16:07.574Z,8.52
2023-03-08T23:18:35.561Z,7.85
2023-03-08T23:21:04.508Z,7.90
2023-03-08T23:23:32.295Z,7.72
2023-03-08T23:26:00.026Z,8.10
2023-03-08T23:28:27.713Z,8.05
2023-03-08T23:30:56.743Z,8.60
2023-03-08T23:33:24.331Z,7.85
2023-03-08T23:35:51.955Z,8.15
2023-03-08T23:38:19.660Z,8.57
2023-03-08T23:40:47.269Z,8.38
2023-03-08T23:43:15.055Z,8.30
2023-03-08T23:45:42.755Z,8.40
2023-03-08T23:48:11.759Z,8.35
2023-03-08T23:50:39.516Z,8.60
2023-03-08T23:53:07.195Z,8.57
2023-03-08T23:55:37.775Z,7.75
2023-03-08T23:58:05.439Z,8.43
